Aérodrome :
LOGIN :

S'inscrire | Disclaimer

   EN    FR    IT 

 










Légende :    VFR   VFR Marginal   IFR   IFR Intensif   IFR Très Intensif
Visi : 
Plafond : 
>= 8 km
>= 3000ft
5 à 8 km
1000 à 3000 ft
1500m à 5 km
500 à 1000 ft
800 à 1500m
200 à 500 ft
< 800m
< 200 ft
Symboles :   Orages  Brouillard  Fortes neiges  Fortes précipitations  Vent > 20 kt
SIGMETs :   Divers  Orages  Givrage  Turbulence  Onde Orograph.  Cendres Volcan.






- Altitude de l'aérodrome : 147 ft
- Code IATA : DUS


EDDL - Düsseldorf Int.

DERNIER METAR :
  • 220950Z 03011KT 360V060 9999 BKN024 17/10 Q1016 NOSIG

METARs EXPIRÉS :
  • 220920Z 04010KT 9999 SCT024 17/11 Q1015 NOSIG
  • 220850Z 04012KT 9999 -RA FEW024 16/10 Q1015 NOSIG
  • 220820Z 03008KT 360V070 9999 -RA FEW020 15/11 Q1016 NOSIG
  • 220750Z 04007KT 9999 -RA FEW020 15/10 Q1015 NOSIG
  • 220720Z 05009KT 9999 SCT018 14/10 Q1015 NOSIG

TAF TAF EDDL
Valide du 22 à 06h jusqu'au 23 à 12h UTC


220500Z 2206/2312 01009KT 9999 SCT015 BKN030
PROB40
TEMPO 2206/2208 SHRA BKN012TCU
PROB30
TEMPO 2216/2220 SHRA BKN040CB



MET'MAP, la Météo Aéronautique d'un coup d'oeil ! - Copyright ORBIFLY Décembre 2007 - Disclaimer

ORBIFLY MET'MAP TEAM :

Programmation & Développement : Alexandra Zaïnal
Sur une idée originale de : Baudouin d'Aumeries
Assistance à la programmation : Marc-Olivier Méhu
Soutien technique & logistique : Manuel Goepfert

Contact : metmap@orbifly.com




SOURCES & CREDITS :

   NOAA